KELP

El Paso International Airport

Airport
ICAO code
KELP
IATA Code
ELP
Summary
ICAO Region
NAM
ICAO Territory
Location

El Paso, Texas

Serving
El Paso
Elevation
3959 ft
Coordinates
31° 47' 56" N , 106° 23' 42" W
KCC
Airport RE
Hot and High Operations
Metar
KELP 201651Z 10013G22KT 10SM SCT036 BKN055 27/16 A3018 RMK AO2 SLP145 VIRGA SW T02670161

El Paso International Airport is a public use airport located 6 km northeast of the central business district of El Paso, in El Paso County, Texas.

 

Airport map

Aerial View

SKYbrary Partners:

Safety knowledge contributed by: